createdAt,value
2019-03-28T00:00:05.452Z,102238.52
2019-03-28T00:02:33.841Z,102234.05
2019-03-28T00:05:02.181Z,102236.13
2019-03-28T00:07:30.748Z,102237.89
2019-03-28T00:09:59.513Z,102240.62
2019-03-28T00:12:28.583Z,102235.27
2019-03-28T00:14:57.820Z,102239.70
2019-03-28T00:17:26.872Z,102241.19
2019-03-28T00:19:55.103Z,102230.12
2019-03-28T00:22:43.641Z,102236.22
2019-03-28T00:25:13.068Z,102230.75
2019-03-28T00:27:41.574Z,102230.41
2019-03-28T00:30:10.258Z,102230.69
2019-03-28T00:32:39.158Z,102234.73
2019-03-28T00:35:07.889Z,102236.16
2019-03-28T00:37:36.361Z,102238.34
2019-03-28T00:40:05.601Z,102235.28
2019-03-28T00:42:35.104Z,102241.45
2019-03-28T00:45:03.963Z,102239.12
2019-03-28T00:47:32.273Z,102237.27
2019-03-28T00:50:01.084Z,102243.25
2019-03-28T00:52:29.674Z,102243.09
2019-03-28T00:54:58.363Z,102240.40
2019-03-28T00:57:26.962Z,102233.86
2019-03-28T00:59:55.209Z,102232.95
2019-03-28T01:02:23.507Z,102237.62
2019-03-28T01:04:52.255Z,102234.98
2019-03-28T01:07:20.591Z,102234.92
2019-03-28T01:09:48.837Z,102234.18
2019-03-28T01:12:17.566Z,102227.91
2019-03-28T01:14:45.683Z,102226.32
2019-03-28T01:17:14.741Z,102235.33
2019-03-28T01:19:44.008Z,102230.08
2019-03-28T01:22:12.656Z,102230.58
2019-03-28T01:24:41.482Z,102229.08
2019-03-28T01:27:09.612Z,102232.03
2019-03-28T01:29:38.158Z,102229.93
2019-03-28T01:32:06.685Z,102233.13
2019-03-28T01:34:35.378Z,102228.48
2019-03-28T01:37:05.089Z,102232.98
2019-03-28T01:39:33.782Z,102232.28
2019-03-28T01:42:01.998Z,102234.53
2019-03-28T01:44:30.063Z,102232.67
2019-03-28T01:46:58.748Z,102235.78
2019-03-28T01:49:27.593Z,102234.23
2019-03-28T01:51:56.247Z,102228.28
2019-03-28T01:54:25.084Z,102222.89
2019-03-28T01:56:54.012Z,102225.64
2019-03-28T01:59:22.245Z,102225.94
2019-03-28T02:01:50.440Z,102222.03
2019-03-28T02:04:18.747Z,102222.39
2019-03-28T02:06:46.954Z,102228.54
2019-03-28T02:09:16.233Z,102230.39
2019-03-28T02:11:45.230Z,102230.48
2019-03-28T02:14:13.723Z,102225.29
2019-03-28T02:16:42.571Z,102227.98
2019-03-28T02:19:11.474Z,102218.59
2019-03-28T02:21:39.818Z,102220.50
2019-03-28T02:24:08.655Z,102217.14
2019-03-28T02:26:38.058Z,102212.66
2019-03-28T02:29:06.147Z,102211.99
2019-03-28T02:31:34.949Z,102220.28
2019-03-28T02:34:03.330Z,102222.09
2019-03-28T02:36:31.886Z,102217.48
2019-03-28T02:39:00.489Z,102213.25
2019-03-28T02:41:28.978Z,102219.19
2019-03-28T02:43:57.222Z,102212.59
2019-03-28T02:46:25.294Z,102214.58
2019-03-28T02:48:54.268Z,102218.12
2019-03-28T02:51:22.762Z,102215.14
2019-03-28T02:53:51.095Z,102219.23
2019-03-28T02:56:19.829Z,102222.22
2019-03-28T02:58:48.040Z,102216.47
2019-03-28T03:01:16.513Z,102222.97
2019-03-28T03:03:45.901Z,102229.63
2019-03-28T03:06:14.800Z,102227.18
2019-03-28T03:08:43.286Z,102232.27
2019-03-28T03:11:11.863Z,102228.84
2019-03-28T03:13:40.320Z,102231.13
2019-03-28T03:16:08.412Z,102224.62
2019-03-28T03:18:37.567Z,102223.04
2019-03-28T03:21:06.302Z,102216.65
2019-03-28T03:23:34.988Z,102218.43
2019-03-28T03:26:03.221Z,102223.69
2019-03-28T03:28:31.740Z,102218.66
2019-03-28T03:31:00.934Z,102225.34
2019-03-28T03:33:30.093Z,102228.39
2019-03-28T03:35:58.486Z,102233.02
2019-03-28T03:38:26.833Z,102234.78
2019-03-28T03:40:55.104Z,102237.34
2019-03-28T03:43:23.756Z,102236.58
2019-03-28T03:45:51.994Z,102241.42
2019-03-28T03:48:20.477Z,102240.83
2019-03-28T03:50:49.295Z,102246.73
2019-03-28T03:53:17.949Z,102244.53
2019-03-28T03:55:46.725Z,102238.98
2019-03-28T03:58:16.958Z,102238.28
2019-03-28T04:00:47.143Z,102245.03
2019-03-28T04:03:16.020Z,102240.93
2019-03-28T04:05:44.916Z,102243.18
2019-03-28T04:08:13.130Z,102242.38
2019-03-28T04:10:42.049Z,102240.28
2019-03-28T04:13:10.867Z,102240.77
2019-03-28T04:15:39.207Z,102246.58
2019-03-28T04:18:07.886Z,102251.11
2019-03-28T04:20:36.332Z,102253.96
2019-03-28T04:23:04.772Z,102261.77
2019-03-28T04:25:33.027Z,102259.50
2019-03-28T04:28:01.759Z,102262.61
2019-03-28T04:30:30.144Z,102267.02
2019-03-28T04:32:58.878Z,102262.76
2019-03-28T04:35:28.380Z,102266.85
2019-03-28T04:37:57.000Z,102256.77
2019-03-28T04:40:25.683Z,102257.42
2019-03-28T04:42:54.075Z,102261.81
2019-03-28T04:45:23.125Z,102266.72
2019-03-28T04:47:51.473Z,102269.27
2019-03-28T04:50:19.824Z,102264.16
2019-03-28T04:52:48.462Z,102269.02
2019-03-28T04:55:16.777Z,102277.11
2019-03-28T04:57:45.070Z,102271.22
2019-03-28T05:00:13.959Z,102277.70
2019-03-28T05:02:45.804Z,102282.10
2019-03-28T05:05:13.301Z,102284.53
2019-03-28T05:07:42.367Z,102286.03
2019-03-28T05:10:11.804Z,102281.42
2019-03-28T05:12:40.891Z,102287.47
2019-03-28T05:15:10.809Z,102287.02
2019-03-28T05:17:40.402Z,102295.00
2019-03-28T05:20:13.071Z,102303.02
2019-03-28T05:22:40.774Z,102301.02
2019-03-28T05:25:09.377Z,102295.15
2019-03-28T05:27:38.833Z,102300.10
2019-03-28T05:30:09.426Z,102303.60
2019-03-28T05:32:37.769Z,102307.38
2019-03-28T05:35:06.332Z,102312.50
2019-03-28T05:37:35.020Z,102309.56
2019-03-28T05:40:03.844Z,102313.39
2019-03-28T05:42:32.617Z,102322.13
2019-03-28T05:45:00.800Z,102324.55
2019-03-28T05:47:29.551Z,102326.98
2019-03-28T05:49:58.517Z,102327.48
2019-03-28T05:52:27.026Z,102328.95
2019-03-28T05:54:55.688Z,102320.56
2019-03-28T05:57:23.957Z,102324.39
2019-03-28T05:59:52.285Z,102320.84
2019-03-28T06:02:21.906Z,102326.23
2019-03-28T06:04:50.434Z,102323.38
2019-03-28T06:07:19.231Z,102320.53
2019-03-28T06:09:47.386Z,102320.80
2019-03-28T06:12:18.908Z,102325.09
2019-03-28T06:14:47.419Z,102326.88
2019-03-28T06:17:15.982Z,102325.53
2019-03-28T06:19:45.078Z,102320.67
2019-03-28T06:22:13.706Z,102322.13
2019-03-28T06:24:42.168Z,102319.66
2019-03-28T06:27:11.361Z,102321.42
2019-03-28T06:29:39.744Z,102323.20
2019-03-28T06:32:08.408Z,102324.58
2019-03-28T06:34:37.054Z,102320.65
2019-03-28T06:37:06.413Z,102321.66
2019-03-28T06:39:36.599Z,102322.59
2019-03-28T06:42:05.222Z,102321.20
2019-03-28T06:44:34.406Z,102323.28
2019-03-28T06:47:03.260Z,102320.34
2019-03-28T06:49:32.002Z,102317.63
2019-03-28T06:52:00.705Z,102317.91
2019-03-28T06:54:29.287Z,102322.91
2019-03-28T06:56:57.760Z,102317.91
2019-03-28T06:59:36.563Z,102318.97
2019-03-28T07:01:57.674Z,102318.74
2019-03-28T07:04:26.644Z,102315.64
2019-03-28T07:06:54.904Z,102318.44
2019-03-28T07:09:23.289Z,102313.21
2019-03-28T07:11:51.500Z,102317.69
2019-03-28T07:14:19.995Z,102310.25
2019-03-28T07:16:49.244Z,102312.80
2019-03-28T07:19:18.457Z,102308.36
2019-03-28T07:21:47.075Z,102306.99
2019-03-28T07:24:15.420Z,102310.04
2019-03-28T07:26:44.013Z,102310.69
2019-03-28T07:29:12.938Z,102307.94
2019-03-28T07:31:41.877Z,102308.95
2019-03-28T07:34:13.373Z,102304.42
2019-03-28T07:36:40.640Z,102301.36
2019-03-28T07:39:08.846Z,102301.88
2019-03-28T07:41:37.620Z,102302.55
2019-03-28T07:44:06.210Z,102301.58
2019-03-28T07:46:35.109Z,102303.32
2019-03-28T07:49:03.791Z,102303.91
2019-03-28T07:51:32.258Z,102301.61
2019-03-28T07:54:00.616Z,102296.64
2019-03-28T07:56:29.333Z,102291.64
2019-03-28T07:58:58.322Z,102295.22
2019-03-28T08:01:26.882Z,102295.17
2019-03-28T08:03:55.083Z,102297.16
2019-03-28T08:06:24.084Z,102290.41
2019-03-28T08:08:52.338Z,102288.67
2019-03-28T08:11:20.947Z,102294.44
2019-03-28T08:13:49.986Z,102298.73
2019-03-28T08:16:18.807Z,102301.93
2019-03-28T08:18:47.539Z,102292.59
2019-03-28T08:21:16.475Z,102292.32
2019-03-28T08:23:44.911Z,102291.07
2019-03-28T08:26:13.337Z,102287.09
2019-03-28T08:28:42.209Z,102287.59
2019-03-28T08:31:10.626Z,102292.02
2019-03-28T08:33:43.382Z,102286.16
2019-03-28T08:36:14.240Z,102286.48
2019-03-28T08:38:44.396Z,102287.63
2019-03-28T08:41:12.756Z,102289.05
2019-03-28T08:43:42.676Z,102290.56
2019-03-28T08:46:11.924Z,102296.78
2019-03-28T08:48:40.322Z,102295.42
2019-03-28T08:51:09.550Z,102302.59
2019-03-28T08:53:38.406Z,102295.84
2019-03-28T08:56:06.645Z,102302.02
2019-03-28T08:58:37.936Z,102298.61
2019-03-28T09:01:06.915Z,102291.04
2019-03-28T09:03:35.166Z,102299.30
2019-03-28T09:06:04.143Z,102303.89
2019-03-28T09:08:32.702Z,102302.75
2019-03-28T09:11:01.176Z,102303.09
2019-03-28T09:13:30.038Z,102303.84
2019-03-28T09:15:58.673Z,102306.33
2019-03-28T09:18:27.100Z,102299.08
2019-03-28T09:20:56.566Z,102294.72
2019-03-28T09:23:24.919Z,102300.96
2019-03-28T09:25:53.927Z,102294.41
2019-03-28T09:28:23.211Z,102291.23
2019-03-28T09:30:52.025Z,102286.91
2019-03-28T09:33:20.655Z,102285.30
2019-03-28T09:35:49.178Z,102280.00
2019-03-28T09:38:17.822Z,102287.59
2019-03-28T09:40:46.412Z,102275.84
2019-03-28T09:43:15.063Z,102280.69
2019-03-28T09:45:43.651Z,102275.31
2019-03-28T09:48:12.192Z,102274.77
2019-03-28T09:50:40.528Z,102276.72
2019-03-28T09:53:09.505Z,102274.63
2019-03-28T09:55:38.130Z,102273.14
2019-03-28T09:58:06.261Z,102277.04
2019-03-28T10:00:35.013Z,102281.22
2019-03-28T10:03:04.026Z,102281.63
2019-03-28T10:05:33.015Z,102277.27
2019-03-28T10:08:01.439Z,102273.64
2019-03-28T10:10:29.858Z,102277.27
2019-03-28T10:12:58.065Z,102272.86
2019-03-28T10:15:26.670Z,102276.76
2019-03-28T10:17:55.090Z,102268.67
2019-03-28T10:20:23.629Z,102265.20
2019-03-28T10:22:52.651Z,102261.44
2019-03-28T10:25:20.832Z,102249.69
2019-03-28T10:27:50.070Z,102263.25
2019-03-28T10:30:36.248Z,102263.00
2019-03-28T10:33:04.651Z,102254.39
2019-03-28T10:35:33.119Z,102257.19
2019-03-28T10:38:01.345Z,102252.67
2019-03-28T10:40:29.908Z,102246.00
2019-03-28T10:42:59.034Z,102243.16
2019-03-28T10:45:27.715Z,102239.41
2019-03-28T10:47:56.872Z,102238.30
2019-03-28T10:50:39.914Z,102234.91
2019-03-28T10:52:56.861Z,102236.78
2019-03-28T10:55:25.386Z,102235.12
2019-03-28T10:57:54.368Z,102231.42
2019-03-28T11:00:24.228Z,102229.50
2019-03-28T11:02:53.111Z,102231.84
2019-03-28T11:05:22.116Z,102221.97
2019-03-28T11:07:50.709Z,102224.04
2019-03-28T11:10:19.371Z,102217.03
2019-03-28T11:12:47.889Z,102229.17
2019-03-28T11:15:16.493Z,102220.17
2019-03-28T11:17:44.966Z,102218.20
2019-03-28T11:20:13.383Z,102214.77
2019-03-28T11:22:42.076Z,102208.18
2019-03-28T11:25:10.778Z,102201.52
2019-03-28T11:27:39.632Z,102209.52
2019-03-28T11:30:09.463Z,102201.86
2019-03-28T11:32:38.134Z,102204.95
2019-03-28T11:35:07.751Z,102199.31
2019-03-28T11:37:36.611Z,102200.13
2019-03-28T11:40:09.414Z,102205.26
2019-03-28T11:42:38.047Z,102205.68
2019-03-28T11:45:09.610Z,102200.48
2019-03-28T11:47:38.522Z,102195.85
2019-03-28T11:50:08.827Z,102191.77
2019-03-28T11:52:37.073Z,102195.39
2019-03-28T11:55:06.851Z,102189.63
2019-03-28T11:57:36.225Z,102194.09
2019-03-28T12:00:07.142Z,102188.00
2019-03-28T12:02:35.784Z,102185.64
2019-03-28T12:05:06.812Z,102188.92
2019-03-28T12:07:35.868Z,102190.09
2019-03-28T12:10:07.249Z,102197.85
2019-03-28T12:12:36.530Z,102196.50
2019-03-28T12:15:06.695Z,102187.79
2019-03-28T12:17:35.176Z,102184.21
2019-03-28T12:20:04.265Z,102180.58
2019-03-28T12:22:33.078Z,102171.58
2019-03-28T12:25:01.167Z,102169.61
2019-03-28T12:27:30.509Z,102177.98
2019-03-28T12:29:58.858Z,102178.29
2019-03-28T12:32:27.423Z,102175.19
2019-03-28T12:34:55.920Z,102175.45
2019-03-28T12:37:24.061Z,102176.81
2019-03-28T12:39:53.082Z,102175.02
2019-03-28T12:42:21.940Z,102180.81
2019-03-28T12:44:56.903Z,102185.06
2019-03-28T12:47:21.302Z,102173.38
2019-03-28T12:49:49.863Z,102169.23
2019-03-28T12:52:18.816Z,102166.34
2019-03-28T12:54:47.242Z,102172.56
2019-03-28T12:57:16.494Z,102167.88
2019-03-28T12:59:45.206Z,102162.84
2019-03-28T13:02:27.106Z,102161.58
2019-03-28T13:04:44.495Z,102169.30
2019-03-28T13:07:12.797Z,102174.17
2019-03-28T13:09:41.428Z,102182.30
2019-03-28T13:12:09.927Z,102171.41
2019-03-28T13:14:39.117Z,102169.19
2019-03-28T13:17:07.331Z,102168.96
2019-03-28T13:19:36.242Z,102172.47
2019-03-28T13:22:04.710Z,102173.95
2019-03-28T13:24:33.276Z,102164.16
2019-03-28T13:27:01.733Z,102166.89
2019-03-28T13:29:31.375Z,102164.83
2019-03-28T13:32:00.330Z,102166.45
2019-03-28T13:34:29.117Z,102166.69
2019-03-28T13:36:57.982Z,102162.17
2019-03-28T13:39:27.031Z,102163.31
2019-03-28T13:41:55.180Z,102155.44
2019-03-28T13:44:24.081Z,102156.87
2019-03-28T13:46:52.476Z,102150.82
2019-03-28T13:49:21.032Z,102145.11
2019-03-28T13:51:49.805Z,102143.05
2019-03-28T13:54:18.265Z,102148.08
2019-03-28T13:56:46.667Z,102138.91
2019-03-28T13:59:15.030Z,102138.75
2019-03-28T14:01:43.776Z,102140.16
2019-03-28T14:04:13.485Z,102140.02
2019-03-28T14:06:41.722Z,102134.87
2019-03-28T14:09:10.352Z,102134.46
2019-03-28T14:11:39.106Z,102128.77
2019-03-28T14:14:08.236Z,102126.39
2019-03-28T14:16:37.409Z,102120.97
2019-03-28T14:19:06.007Z,102132.72
2019-03-28T14:21:34.318Z,102125.70
2019-03-28T14:24:03.020Z,102128.26
2019-03-28T14:26:31.624Z,102126.72
2019-03-28T14:29:00.714Z,102116.46
2019-03-28T14:31:29.468Z,102123.59
2019-03-28T14:33:58.351Z,102116.23
2019-03-28T14:36:27.185Z,102113.17
2019-03-28T14:38:57.515Z,102121.36
2019-03-28T14:41:25.970Z,102120.09
2019-03-28T14:43:54.341Z,102114.25
2019-03-28T14:46:23.947Z,102108.20
2019-03-28T14:48:53.321Z,102104.40
2019-03-28T14:51:21.498Z,102113.34
2019-03-28T14:53:50.571Z,102114.05
2019-03-28T14:56:19.808Z,102112.81
2019-03-28T14:58:52.221Z,102116.77
2019-03-28T15:01:20.989Z,102110.53
2019-03-28T15:03:49.506Z,102116.20
2019-03-28T15:06:17.950Z,102114.98
2019-03-28T15:08:46.591Z,102112.53
2019-03-28T15:11:15.791Z,102113.91
2019-03-28T15:13:44.162Z,102108.22
2019-03-28T15:16:12.655Z,102111.16
2019-03-28T15:18:42.556Z,102107.29
2019-03-28T15:21:11.714Z,102102.94
2019-03-28T15:23:40.752Z,102106.78
2019-03-28T15:26:10.806Z,102106.69
2019-03-28T15:28:39.014Z,102105.97
2019-03-28T15:31:07.229Z,102104.42
2019-03-28T15:33:39.834Z,102100.55
2019-03-28T15:36:09.275Z,102102.41
2019-03-28T15:38:38.053Z,102097.69
2019-03-28T15:41:12.878Z,102092.80
2019-03-28T15:43:42.129Z,102090.45
2019-03-28T15:46:11.514Z,102091.06
2019-03-28T15:48:40.101Z,102088.15
2019-03-28T15:51:08.330Z,102096.11
2019-03-28T15:53:37.064Z,102097.30
2019-03-28T15:56:05.396Z,102096.44
2019-03-28T15:58:33.514Z,102100.02
2019-03-28T16:01:02.240Z,102101.86
2019-03-28T16:03:30.904Z,102097.16
2019-03-28T16:06:00.461Z,102097.83
2019-03-28T16:08:28.934Z,102093.02
2019-03-28T16:10:59.376Z,102093.45
2019-03-28T16:13:28.110Z,102084.99
2019-03-28T16:15:56.716Z,102090.13
2019-03-28T16:18:25.314Z,102094.87
2019-03-28T16:20:57.191Z,102092.58
2019-03-28T16:23:25.529Z,102091.49
2019-03-28T16:25:54.608Z,102091.57
2019-03-28T16:28:28.303Z,102091.49
2019-03-28T16:30:56.896Z,102094.51
2019-03-28T16:33:25.346Z,102089.31
2019-03-28T16:35:54.027Z,102093.67
2019-03-28T16:38:22.703Z,102092.28
2019-03-28T16:40:51.488Z,102103.47
2019-03-28T16:43:20.072Z,102106.28
2019-03-28T16:45:48.151Z,102096.97
2019-03-28T16:48:16.591Z,102102.58
2019-03-28T16:50:45.533Z,102099.17
2019-03-28T16:53:14.372Z,102100.86
2019-03-28T16:55:43.427Z,102107.52
2019-03-28T16:58:11.763Z,102100.20
2019-03-28T17:00:40.457Z,102103.35
2019-03-28T17:03:09.051Z,102097.48
2019-03-28T17:05:39.503Z,102100.59
2019-03-28T17:08:08.164Z,102105.23
2019-03-28T17:10:53.829Z,102106.98
2019-03-28T17:13:22.480Z,102104.72
2019-03-28T17:15:52.094Z,102108.66
2019-03-28T17:18:20.953Z,102102.06
2019-03-28T17:20:49.792Z,102103.59
2019-03-28T17:23:18.843Z,102104.78
2019-03-28T17:25:47.881Z,102111.24
2019-03-28T17:28:16.932Z,102108.86
2019-03-28T17:30:45.472Z,102104.69
2019-03-28T17:33:13.704Z,102109.49
2019-03-28T17:35:42.217Z,102108.74
2019-03-28T17:38:12.020Z,102107.27
2019-03-28T17:40:41.514Z,102115.55
2019-03-28T17:43:10.033Z,102111.50
2019-03-28T17:45:39.330Z,102120.52
2019-03-28T17:48:09.013Z,102120.63
2019-03-28T17:50:37.615Z,102123.84
2019-03-28T17:53:06.179Z,102124.06
2019-03-28T17:55:36.813Z,102122.30
2019-03-28T17:58:08.345Z,102127.58
2019-03-28T18:00:36.748Z,102120.84
2019-03-28T18:03:09.518Z,102126.22
2019-03-28T18:05:36.133Z,102126.05
2019-03-28T18:08:04.984Z,102128.91
2019-03-28T18:10:34.355Z,102130.80
2019-03-28T18:13:03.809Z,102129.95
2019-03-28T18:15:33.484Z,102129.25
2019-03-28T18:18:04.022Z,102136.74
2019-03-28T18:20:38.453Z,102134.05
2019-03-28T18:23:12.386Z,102141.48
2019-03-28T18:25:41.472Z,102135.72
2019-03-28T18:28:12.316Z,102140.27
2019-03-28T18:30:42.892Z,102144.17
2019-03-28T18:33:12.465Z,102146.88
2019-03-28T18:35:40.834Z,102150.45
2019-03-28T18:38:11.165Z,102149.73
2019-03-28T18:40:39.937Z,102157.23
2019-03-28T18:43:08.643Z,102168.38
2019-03-28T18:45:38.742Z,102161.66
2019-03-28T18:48:09.258Z,102157.99
2019-03-28T18:50:41.072Z,102160.34
2019-03-28T18:53:09.161Z,102162.00
2019-03-28T18:55:39.781Z,102161.53
2019-03-28T18:58:08.181Z,102174.63
2019-03-28T19:00:36.777Z,102178.39
2019-03-28T19:03:05.640Z,102182.95
2019-03-28T19:05:34.191Z,102175.94
2019-03-28T19:08:02.608Z,102182.94
2019-03-28T19:10:31.359Z,102178.12
2019-03-28T19:13:00.514Z,102174.45
2019-03-28T19:15:31.483Z,102174.95
2019-03-28T19:18:00.959Z,102177.35
2019-03-28T19:20:29.531Z,102177.73
2019-03-28T19:22:59.813Z,102184.55
2019-03-28T19:25:28.852Z,102177.62
2019-03-28T19:27:59.075Z,102188.40
2019-03-28T19:30:35.320Z,102177.43
2019-03-28T19:33:06.762Z,102181.25
2019-03-28T19:35:37.702Z,102173.57
2019-03-28T19:38:09.035Z,102170.61
2019-03-28T19:40:37.580Z,102165.30
2019-03-28T19:43:19.216Z,102167.21
2019-03-28T19:45:37.508Z,102175.41
2019-03-28T19:48:09.905Z,102166.65
2019-03-28T19:50:38.137Z,102166.68
2019-03-28T19:53:07.168Z,102169.69
2019-03-28T19:55:36.026Z,102168.39
2019-03-28T19:58:05.563Z,102172.13
2019-03-28T20:00:34.266Z,102165.45
2019-03-28T20:03:03.700Z,102168.79
2019-03-28T20:05:46.444Z,102162.95
2019-03-28T20:08:14.712Z,102174.83
2019-03-28T20:10:34.835Z,102167.55
2019-03-28T20:13:05.388Z,102177.91
2019-03-28T20:15:34.329Z,102170.27
2019-03-28T20:18:03.186Z,102174.89
2019-03-28T20:20:31.717Z,102171.18
2019-03-28T20:22:59.895Z,102170.34
2019-03-28T20:25:28.475Z,102170.49
2019-03-28T20:27:56.930Z,102168.59
2019-03-28T20:30:25.726Z,102177.14
2019-03-28T20:32:54.394Z,102177.45
2019-03-28T20:35:23.571Z,102174.61
2019-03-28T20:37:52.882Z,102175.23
2019-03-28T20:40:21.255Z,102179.69
2019-03-28T20:42:49.891Z,102178.64
2019-03-28T20:45:20.017Z,102177.61
2019-03-28T20:47:48.546Z,102176.77
2019-03-28T20:50:19.532Z,102174.21
2019-03-28T20:52:47.905Z,102179.92
2019-03-28T20:55:16.536Z,102179.83
2019-03-28T20:57:45.053Z,102179.39
2019-03-28T21:00:15.951Z,102182.36
2019-03-28T21:02:44.239Z,102174.75
2019-03-28T21:05:14.549Z,102183.95
2019-03-28T21:07:43.971Z,102181.61
2019-03-28T21:10:23.387Z,102174.21
2019-03-28T21:12:52.096Z,102179.91
2019-03-28T21:15:20.447Z,102177.08
2019-03-28T21:17:49.276Z,102170.08
2019-03-28T21:20:17.490Z,102171.44
2019-03-28T21:22:46.787Z,102177.89
2019-03-28T21:25:17.179Z,102176.39
2019-03-28T21:27:45.520Z,102168.66
2019-03-28T21:30:14.227Z,102178.78
2019-03-28T21:32:54.726Z,102170.74
2019-03-28T21:35:13.483Z,102170.72
2019-03-28T21:37:41.899Z,102165.84
2019-03-28T21:40:10.515Z,102165.17
2019-03-28T21:42:39.086Z,102166.38
2019-03-28T21:45:08.124Z,102161.66
2019-03-28T21:47:36.736Z,102162.26
2019-03-28T21:50:05.265Z,102164.43
2019-03-28T21:52:33.806Z,102167.72
2019-03-28T21:55:03.081Z,102160.88
2019-03-28T21:57:32.148Z,102164.82
2019-03-28T22:00:00.612Z,102162.14
2019-03-28T22:02:29.188Z,102161.24
2019-03-28T22:04:59.415Z,102157.81
2019-03-28T22:07:28.739Z,102157.92
2019-03-28T22:09:57.661Z,102154.22
2019-03-28T22:12:26.783Z,102154.56
2019-03-28T22:14:55.515Z,102149.11
2019-03-28T22:17:26.968Z,102148.93
2019-03-28T22:19:56.741Z,102151.53
2019-03-28T22:22:26.090Z,102153.14
2019-03-28T22:24:55.002Z,102148.00
2019-03-28T22:27:23.524Z,102148.69
2019-03-28T22:29:51.996Z,102156.48
2019-03-28T22:32:20.500Z,102156.24
2019-03-28T22:34:49.081Z,102156.48
2019-03-28T22:37:17.567Z,102161.02
2019-03-28T22:39:46.649Z,102159.50
2019-03-28T22:42:17.230Z,102158.24
2019-03-28T22:44:46.241Z,102162.16
2019-03-28T22:47:14.689Z,102156.05
2019-03-28T22:49:44.493Z,102156.41
2019-03-28T22:52:14.637Z,102157.45
2019-03-28T22:54:43.496Z,102154.92
2019-03-28T22:57:12.267Z,102152.83
2019-03-28T22:59:40.779Z,102148.78
2019-03-28T23:02:09.202Z,102150.14
2019-03-28T23:04:39.034Z,102150.24
2019-03-28T23:07:11.254Z,102158.17
2019-03-28T23:09:40.499Z,102159.59
2019-03-28T23:12:09.446Z,102162.50
2019-03-28T23:14:38.499Z,102163.88
2019-03-28T23:17:07.798Z,102166.25
2019-03-28T23:19:37.047Z,102165.25
2019-03-28T23:22:07.282Z,102164.90
2019-03-28T23:24:39.047Z,102168.71
2019-03-28T23:27:08.532Z,102171.66
2019-03-28T23:29:38.321Z,102173.16
2019-03-28T23:32:08.379Z,102175.80
2019-03-28T23:34:37.179Z,102172.04
2019-03-28T23:37:06.064Z,102172.83
2019-03-28T23:39:35.468Z,102176.39
2019-03-28T23:42:05.388Z,102182.04
2019-03-28T23:44:35.050Z,102177.67
2019-03-28T23:47:06.187Z,102172.70
2019-03-28T23:49:34.509Z,102177.23
2019-03-28T23:52:03.082Z,102176.41
2019-03-28T23:54:31.516Z,102179.97
2019-03-28T23:56:59.900Z,102179.45
2019-03-28T23:59:28.906Z,102172.05
